sensor_id;sensor_type;location;lat;lon;timestamp;P1;durP1;ratioP1;P2;durP2;ratioP2
66437;SDS011;54537;47.972;11.662;2023-01-28T00:00:02;30.52;;;8.77;;
66437;SDS011;54537;47.972;11.662;2023-01-28T00:02:32;31.35;;;9.80;;
66437;SDS011;54537;47.972;11.662;2023-01-28T00:04:58;36.95;;;10.75;;
66437;SDS011;54537;47.972;11.662;2023-01-28T00:07:25;28.17;;;9.70;;
66437;SDS011;54537;47.972;11.662;2023-01-28T00:09:51;31.67;;;10.70;;
66437;SDS011;54537;47.972;11.662;2023-01-28T00:12:18;35.55;;;9.77;;
66437;SDS011;54537;47.972;11.662;2023-01-28T00:14:44;35.85;;;10.70;;
66437;SDS011;54537;47.972;11.662;2023-01-28T00:17:12;29.25;;;9.27;;
66437;SDS011;54537;47.972;11.662;2023-01-28T00:19:40;35.70;;;10.60;;
66437;SDS011;54537;47.972;11.662;2023-01-28T00:22:06;31.52;;;10.18;;
66437;SDS011;54537;47.972;11.662;2023-01-28T00:24:33;33.25;;;10.32;;
66437;SDS011;54537;47.972;11.662;2023-01-28T00:26:59;37.75;;;10.75;;
66437;SDS011;54537;47.972;11.662;2023-01-28T00:29:25;30.42;;;10.57;;
66437;SDS011;54537;47.972;11.662;2023-01-28T00:31:52;30.23;;;10.13;;
66437;SDS011;54537;47.972;11.662;2023-01-28T00:34:19;35.90;;;11.23;;
66437;SDS011;54537;47.972;11.662;2023-01-28T00:36:47;38.50;;;12.15;;
66437;SDS011;54537;47.972;11.662;2023-01-28T00:39:21;30.10;;;10.48;;
66437;SDS011;54537;47.972;11.662;2023-01-28T00:41:48;37.25;;;10.65;;
66437;SDS011;54537;47.972;11.662;2023-01-28T00:44:14;36.85;;;11.55;;
66437;SDS011;54537;47.972;11.662;2023-01-28T00:46:41;31.83;;;10.40;;
66437;SDS011;54537;47.972;11.662;2023-01-28T00:49:07;39.25;;;11.10;;
66437;SDS011;54537;47.972;11.662;2023-01-28T00:51:34;38.10;;;11.95;;
66437;SDS011;54537;47.972;11.662;2023-01-28T00:54:02;37.25;;;11.40;;
66437;SDS011;54537;47.972;11.662;2023-01-28T00:56:28;36.38;;;11.50;;
66437;SDS011;54537;47.972;11.662;2023-01-28T00:58:55;36.83;;;10.85;;
66437;SDS011;54537;47.972;11.662;2023-01-28T01:01:23;30.45;;;9.85;;
66437;SDS011;54537;47.972;11.662;2023-01-28T01:03:50;33.47;;;9.43;;
66437;SDS011;54537;47.972;11.662;2023-01-28T01:06:22;33.20;;;10.57;;
66437;SDS011;54537;47.972;11.662;2023-01-28T01:08:48;36.25;;;11.20;;
66437;SDS011;54537;47.972;11.662;2023-01-28T01:11:16;37.22;;;10.82;;
66437;SDS011;54537;47.972;11.662;2023-01-28T01:13:43;40.85;;;11.60;;
66437;SDS011;54537;47.972;11.662;2023-01-28T01:16:11;32.72;;;10.45;;
66437;SDS011;54537;47.972;11.662;2023-01-28T01:18:39;34.63;;;11.05;;
66437;SDS011;54537;47.972;11.662;2023-01-28T01:21:07;36.45;;;10.98;;
66437;SDS011;54537;47.972;11.662;2023-01-28T01:23:34;37.33;;;10.13;;
66437;SDS011;54537;47.972;11.662;2023-01-28T01:26:04;34.72;;;10.55;;
66437;SDS011;54537;47.972;11.662;2023-01-28T01:28:32;33.50;;;9.93;;
66437;SDS011;54537;47.972;11.662;2023-01-28T01:30:59;31.35;;;9.45;;
66437;SDS011;54537;47.972;11.662;2023-01-28T01:33:27;36.03;;;11.68;;
66437;SDS011;54537;47.972;11.662;2023-01-28T01:35:54;34.67;;;10.38;;
66437;SDS011;54537;47.972;11.662;2023-01-28T01:38:21;36.80;;;9.85;;
66437;SDS011;54537;47.972;11.662;2023-01-28T01:40:47;35.10;;;11.15;;
66437;SDS011;54537;47.972;11.662;2023-01-28T01:43:14;35.17;;;10.70;;
66437;SDS011;54537;47.972;11.662;2023-01-28T01:45:43;33.95;;;9.50;;
66437;SDS011;54537;47.972;11.662;2023-01-28T01:48:12;33.97;;;11.25;;
66437;SDS011;54537;47.972;11.662;2023-01-28T01:50:42;40.42;;;11.65;;
66437;SDS011;54537;47.972;11.662;2023-01-28T01:53:13;38.10;;;11.20;;
66437;SDS011;54537;47.972;11.662;2023-01-28T01:55:42;32.88;;;10.05;;
66437;SDS011;54537;47.972;11.662;2023-01-28T01:58:12;37.70;;;11.68;;
66437;SDS011;54537;47.972;11.662;2023-01-28T02:00:40;27.77;;;8.65;;
66437;SDS011;54537;47.972;11.662;2023-01-28T02:03:09;34.35;;;10.00;;
66437;SDS011;54537;47.972;11.662;2023-01-28T02:05:36;34.35;;;10.43;;
66437;SDS011;54537;47.972;11.662;2023-01-28T02:08:04;35.17;;;10.43;;
66437;SDS011;54537;47.972;11.662;2023-01-28T02:11:00;33.75;;;10.52;;
66437;SDS011;54537;47.972;11.662;2023-01-28T02:13:29;30.33;;;9.52;;
66437;SDS011;54537;47.972;11.662;2023-01-28T02:15:57;33.42;;;10.02;;
66437;SDS011;54537;47.972;11.662;2023-01-28T02:18:25;32.78;;;10.25;;
66437;SDS011;54537;47.972;11.662;2023-01-28T02:21:14;32.20;;;9.90;;
66437;SDS011;54537;47.972;11.662;2023-01-28T02:24:02;31.15;;;9.38;;
66437;SDS011;54537;47.972;11.662;2023-01-28T02:29:33;35.60;;;10.02;;
66437;SDS011;54537;47.972;11.662;2023-01-28T02:34:33;30.55;;;9.63;;
66437;SDS011;54537;47.972;11.662;2023-01-28T02:37:02;29.65;;;9.63;;
66437;SDS011;54537;47.972;11.662;2023-01-28T02:39:34;31.88;;;10.02;;
66437;SDS011;54537;47.972;11.662;2023-01-28T02:42:03;37.65;;;11.32;;
66437;SDS011;54537;47.972;11.662;2023-01-28T02:44:33;32.47;;;10.00;;
66437;SDS011;54537;47.972;11.662;2023-01-28T02:46:59;27.42;;;9.98;;
66437;SDS011;54537;47.972;11.662;2023-01-28T02:49:45;30.42;;;9.38;;
66437;SDS011;54537;47.972;11.662;2023-01-28T02:52:16;30.63;;;10.05;;
66437;SDS011;54537;47.972;11.662;2023-01-28T02:57:46;29.75;;;8.63;;
66437;SDS011;54537;47.972;11.662;2023-01-28T03:00:22;26.20;;;9.23;;
66437;SDS011;54537;47.972;11.662;2023-01-28T03:02:52;30.63;;;9.02;;
66437;SDS011;54537;47.972;11.662;2023-01-28T03:05:24;30.67;;;9.63;;
66437;SDS011;54537;47.972;11.662;2023-01-28T03:07:53;28.23;;;9.07;;
66437;SDS011;54537;47.972;11.662;2023-01-28T03:10:21;31.17;;;9.30;;
66437;SDS011;54537;47.972;11.662;2023-01-28T03:12:49;26.50;;;8.27;;
66437;SDS011;54537;47.972;11.662;2023-01-28T03:15:36;22.98;;;8.32;;
66437;SDS011;54537;47.972;11.662;2023-01-28T03:18:22;24.85;;;8.40;;
66437;SDS011;54537;47.972;11.662;2023-01-28T03:21:09;29.65;;;9.90;;
66437;SDS011;54537;47.972;11.662;2023-01-28T03:23:56;26.45;;;8.35;;
66437;SDS011;54537;47.972;11.662;2023-01-28T03:26:43;23.10;;;7.03;;
66437;SDS011;54537;47.972;11.662;2023-01-28T03:29:30;24.38;;;8.02;;
66437;SDS011;54537;47.972;11.662;2023-01-28T03:32:16;28.05;;;8.25;;
66437;SDS011;54537;47.972;11.662;2023-01-28T03:35:00;24.02;;;7.68;;
66437;SDS011;54537;47.972;11.662;2023-01-28T03:37:44;24.65;;;7.63;;
66437;SDS011;54537;47.972;11.662;2023-01-28T03:40:11;25.77;;;7.93;;
66437;SDS011;54537;47.972;11.662;2023-01-28T03:42:38;27.67;;;8.32;;
66437;SDS011;54537;47.972;11.662;2023-01-28T03:45:05;25.50;;;8.18;;
66437;SDS011;54537;47.972;11.662;2023-01-28T03:47:33;24.85;;;7.25;;
66437;SDS011;54537;47.972;11.662;2023-01-28T03:49:59;22.70;;;7.68;;
66437;SDS011;54537;47.972;11.662;2023-01-28T03:52:27;22.52;;;7.53;;
66437;SDS011;54537;47.972;11.662;2023-01-28T03:54:55;20.33;;;6.82;;
66437;SDS011;54537;47.972;11.662;2023-01-28T03:57:22;25.27;;;8.23;;
66437;SDS011;54537;47.972;11.662;2023-01-28T03:59:49;26.23;;;8.43;;
66437;SDS011;54537;47.972;11.662;2023-01-28T04:02:17;28.83;;;9.50;;
66437;SDS011;54537;47.972;11.662;2023-01-28T04:04:46;31.30;;;8.55;;
66437;SDS011;54537;47.972;11.662;2023-01-28T04:07:14;24.38;;;8.38;;
66437;SDS011;54537;47.972;11.662;2023-01-28T04:09:41;25.45;;;8.25;;
66437;SDS011;54537;47.972;11.662;2023-01-28T04:12:08;24.48;;;7.25;;
66437;SDS011;54537;47.972;11.662;2023-01-28T04:14:34;20.55;;;6.18;;
66437;SDS011;54537;47.972;11.662;2023-01-28T04:17:01;26.90;;;7.90;;
66437;SDS011;54537;47.972;11.662;2023-01-28T04:19:27;21.45;;;6.57;;
66437;SDS011;54537;47.972;11.662;2023-01-28T04:21:57;23.50;;;6.63;;
66437;SDS011;54537;47.972;11.662;2023-01-28T04:24:23;20.50;;;6.50;;
66437;SDS011;54537;47.972;11.662;2023-01-28T04:26:50;22.55;;;7.30;;
66437;SDS011;54537;47.972;11.662;2023-01-28T04:29:16;27.10;;;8.00;;
66437;SDS011;54537;47.972;11.662;2023-01-28T04:31:42;24.95;;;7.70;;
66437;SDS011;54537;47.972;11.662;2023-01-28T04:34:09;25.23;;;8.30;;
66437;SDS011;54537;47.972;11.662;2023-01-28T04:36:36;26.38;;;8.30;;
66437;SDS011;54537;47.972;11.662;2023-01-28T04:39:04;28.63;;;9.13;;
66437;SDS011;54537;47.972;11.662;2023-01-28T04:41:30;21.10;;;6.70;;
66437;SDS011;54537;47.972;11.662;2023-01-28T04:43:56;24.95;;;7.60;;
66437;SDS011;54537;47.972;11.662;2023-01-28T04:46:23;22.63;;;8.05;;
66437;SDS011;54537;47.972;11.662;2023-01-28T04:48:50;20.10;;;6.85;;
66437;SDS011;54537;47.972;11.662;2023-01-28T04:51:16;22.35;;;7.70;;
66437;SDS011;54537;47.972;11.662;2023-01-28T04:53:42;23.42;;;7.53;;
66437;SDS011;54537;47.972;11.662;2023-01-28T04:56:10;25.13;;;7.05;;
66437;SDS011;54537;47.972;11.662;2023-01-28T04:58:37;22.85;;;7.20;;
66437;SDS011;54537;47.972;11.662;2023-01-28T05:01:03;28.45;;;8.13;;
66437;SDS011;54537;47.972;11.662;2023-01-28T05:03:30;20.70;;;7.18;;
66437;SDS011;54537;47.972;11.662;2023-01-28T05:05:56;25.25;;;7.70;;
66437;SDS011;54537;47.972;11.662;2023-01-28T05:08:23;24.02;;;7.40;;
66437;SDS011;54537;47.972;11.662;2023-01-28T05:10:49;26.75;;;7.45;;
66437;SDS011;54537;47.972;11.662;2023-01-28T05:13:17;20.52;;;6.88;;
66437;SDS011;54537;47.972;11.662;2023-01-28T05:15:49;20.33;;;6.95;;
66437;SDS011;54537;47.972;11.662;2023-01-28T05:18:16;23.38;;;7.80;;
66437;SDS011;54537;47.972;11.662;2023-01-28T05:20:43;20.80;;;6.78;;
66437;SDS011;54537;47.972;11.662;2023-01-28T05:23:09;27.05;;;8.00;;
66437;SDS011;54537;47.972;11.662;2023-01-28T05:25:35;21.45;;;7.20;;
66437;SDS011;54537;47.972;11.662;2023-01-28T05:28:02;26.63;;;7.40;;
66437;SDS011;54537;47.972;11.662;2023-01-28T05:30:30;22.33;;;7.38;;
66437;SDS011;54537;47.972;11.662;2023-01-28T05:32:56;21.05;;;6.97;;
66437;SDS011;54537;47.972;11.662;2023-01-28T05:35:23;21.73;;;7.10;;
66437;SDS011;54537;47.972;11.662;2023-01-28T05:37:50;22.80;;;7.72;;
66437;SDS011;54537;47.972;11.662;2023-01-28T05:40:16;25.00;;;7.80;;
66437;SDS011;54537;47.972;11.662;2023-01-28T05:42:43;24.10;;;7.57;;
66437;SDS011;54537;47.972;11.662;2023-01-28T05:45:10;24.70;;;7.65;;
66437;SDS011;54537;47.972;11.662;2023-01-28T05:47:38;24.00;;;8.15;;
66437;SDS011;54537;47.972;11.662;2023-01-28T05:50:04;24.63;;;7.68;;
66437;SDS011;54537;47.972;11.662;2023-01-28T05:52:31;26.85;;;8.57;;
66437;SDS011;54537;47.972;11.662;2023-01-28T05:54:58;33.30;;;8.80;;
66437;SDS011;54537;47.972;11.662;2023-01-28T05:57:25;30.35;;;8.43;;
66437;SDS011;54537;47.972;11.662;2023-01-28T05:59:51;31.95;;;8.90;;
66437;SDS011;54537;47.972;11.662;2023-01-28T06:02:18;29.17;;;8.93;;
66437;SDS011;54537;47.972;11.662;2023-01-28T06:04:46;30.73;;;9.50;;
66437;SDS011;54537;47.972;11.662;2023-01-28T06:07:12;29.33;;;8.77;;
66437;SDS011;54537;47.972;11.662;2023-01-28T06:09:43;27.67;;;8.50;;
66437;SDS011;54537;47.972;11.662;2023-01-28T06:12:10;30.42;;;8.90;;
66437;SDS011;54537;47.972;11.662;2023-01-28T06:14:36;27.38;;;8.95;;
66437;SDS011;54537;47.972;11.662;2023-01-28T06:17:02;32.13;;;9.20;;
66437;SDS011;54537;47.972;11.662;2023-01-28T06:19:29;27.38;;;8.77;;
66437;SDS011;54537;47.972;11.662;2023-01-28T06:21:57;28.42;;;8.32;;
66437;SDS011;54537;47.972;11.662;2023-01-28T06:24:23;29.38;;;8.88;;
66437;SDS011;54537;47.972;11.662;2023-01-28T06:26:50;30.95;;;9.88;;
66437;SDS011;54537;47.972;11.662;2023-01-28T06:29:16;34.97;;;10.40;;
66437;SDS011;54537;47.972;11.662;2023-01-28T06:31:43;36.67;;;9.48;;
66437;SDS011;54537;47.972;11.662;2023-01-28T06:34:09;35.13;;;9.40;;
66437;SDS011;54537;47.972;11.662;2023-01-28T06:36:37;32.05;;;9.73;;
66437;SDS011;54537;47.972;11.662;2023-01-28T06:39:05;35.13;;;9.88;;
66437;SDS011;54537;47.972;11.662;2023-01-28T06:41:31;29.17;;;9.65;;
66437;SDS011;54537;47.972;11.662;2023-01-28T06:43:58;27.83;;;9.57;;
66437;SDS011;54537;47.972;11.662;2023-01-28T06:46:24;35.38;;;9.60;;
66437;SDS011;54537;47.972;11.662;2023-01-28T06:48:51;32.03;;;9.43;;
66437;SDS011;54537;47.972;11.662;2023-01-28T06:51:18;32.65;;;9.27;;
66437;SDS011;54537;47.972;11.662;2023-01-28T06:53:45;31.80;;;10.30;;
66437;SDS011;54537;47.972;11.662;2023-01-28T06:56:12;34.80;;;10.38;;
66437;SDS011;54537;47.972;11.662;2023-01-28T06:58:39;30.48;;;9.18;;
66437;SDS011;54537;47.972;11.662;2023-01-28T07:01:05;31.08;;;9.25;;
66437;SDS011;54537;47.972;11.662;2023-01-28T07:03:32;30.98;;;8.55;;
66437;SDS011;54537;47.972;11.662;2023-01-28T07:05:58;30.08;;;9.13;;
66437;SDS011;54537;47.972;11.662;2023-01-28T07:08:25;31.13;;;8.52;;
66437;SDS011;54537;47.972;11.662;2023-01-28T07:10:51;27.83;;;9.00;;
66437;SDS011;54537;47.972;11.662;2023-01-28T07:13:19;31.70;;;10.00;;
66437;SDS011;54537;47.972;11.662;2023-01-28T07:15:46;30.63;;;9.48;;
66437;SDS011;54537;47.972;11.662;2023-01-28T07:18:12;40.67;;;9.52;;
66437;SDS011;54537;47.972;11.662;2023-01-28T07:20:39;28.45;;;8.80;;
66437;SDS011;54537;47.972;11.662;2023-01-28T07:23:05;28.13;;;8.48;;
66437;SDS011;54537;47.972;11.662;2023-01-28T07:25:32;31.42;;;8.95;;
66437;SDS011;54537;47.972;11.662;2023-01-28T07:27:59;32.50;;;9.70;;
66437;SDS011;54537;47.972;11.662;2023-01-28T07:30:26;29.05;;;8.93;;
66437;SDS011;54537;47.972;11.662;2023-01-28T07:32:53;32.08;;;10.30;;
66437;SDS011;54537;47.972;11.662;2023-01-28T07:35:20;34.40;;;9.70;;
66437;SDS011;54537;47.972;11.662;2023-01-28T07:37:50;28.90;;;9.55;;
66437;SDS011;54537;47.972;11.662;2023-01-28T07:40:17;30.88;;;9.07;;
66437;SDS011;54537;47.972;11.662;2023-01-28T07:42:44;33.35;;;9.23;;
66437;SDS011;54537;47.972;11.662;2023-01-28T07:45:11;25.65;;;8.05;;
66437;SDS011;54537;47.972;11.662;2023-01-28T07:47:39;28.08;;;8.65;;
66437;SDS011;54537;47.972;11.662;2023-01-28T07:50:05;33.80;;;9.35;;
66437;SDS011;54537;47.972;11.662;2023-01-28T07:52:32;34.80;;;10.05;;
66437;SDS011;54537;47.972;11.662;2023-01-28T07:55:03;31.55;;;9.48;;
66437;SDS011;54537;47.972;11.662;2023-01-28T07:57:30;30.33;;;9.48;;
66437;SDS011;54537;47.972;11.662;2023-01-28T07:59:56;30.70;;;9.30;;
66437;SDS011;54537;47.972;11.662;2023-01-28T08:02:23;38.20;;;9.77;;
66437;SDS011;54537;47.972;11.662;2023-01-28T08:04:51;24.02;;;8.25;;
66437;SDS011;54537;47.972;11.662;2023-01-28T08:07:17;25.88;;;9.15;;
66437;SDS011;54537;47.972;11.662;2023-01-28T08:09:43;30.02;;;9.07;;
66437;SDS011;54537;47.972;11.662;2023-01-28T08:12:10;31.50;;;8.90;;
66437;SDS011;54537;47.972;11.662;2023-01-28T08:14:36;29.92;;;9.65;;
66437;SDS011;54537;47.972;11.662;2023-01-28T08:17:03;28.20;;;8.25;;
66437;SDS011;54537;47.972;11.662;2023-01-28T08:19:29;30.98;;;9.27;;
66437;SDS011;54537;47.972;11.662;2023-01-28T08:21:57;32.97;;;9.63;;
66437;SDS011;54537;47.972;11.662;2023-01-28T08:24:23;27.42;;;8.82;;
66437;SDS011;54537;47.972;11.662;2023-01-28T08:26:50;28.98;;;9.10;;
66437;SDS011;54537;47.972;11.662;2023-01-28T08:29:16;28.17;;;8.88;;
66437;SDS011;54537;47.972;11.662;2023-01-28T08:31:43;27.58;;;9.45;;
66437;SDS011;54537;47.972;11.662;2023-01-28T08:34:09;26.20;;;9.50;;
66437;SDS011;54537;47.972;11.662;2023-01-28T08:36:36;28.95;;;8.75;;
66437;SDS011;54537;47.972;11.662;2023-01-28T08:39:04;27.25;;;8.98;;
66437;SDS011;54537;47.972;11.662;2023-01-28T08:41:30;31.65;;;10.23;;
66437;SDS011;54537;47.972;11.662;2023-01-28T08:43:57;32.03;;;10.35;;
66437;SDS011;54537;47.972;11.662;2023-01-28T08:46:24;32.38;;;9.48;;
66437;SDS011;54537;47.972;11.662;2023-01-28T08:48:50;33.17;;;10.32;;
66437;SDS011;54537;47.972;11.662;2023-01-28T08:51:17;35.85;;;9.70;;
66437;SDS011;54537;47.972;11.662;2023-01-28T08:53:43;34.13;;;10.05;;
66437;SDS011;54537;47.972;11.662;2023-01-28T08:56:11;31.88;;;10.15;;
66437;SDS011;54537;47.972;11.662;2023-01-28T08:58:38;29.63;;;9.77;;
66437;SDS011;54537;47.972;11.662;2023-01-28T09:01:05;31.13;;;9.93;;
66437;SDS011;54537;47.972;11.662;2023-01-28T09:03:31;28.52;;;9.30;;
66437;SDS011;54537;47.972;11.662;2023-01-28T09:06:00;27.45;;;9.60;;
66437;SDS011;54537;47.972;11.662;2023-01-28T09:08:26;30.40;;;9.65;;
66437;SDS011;54537;47.972;11.662;2023-01-28T09:10:53;26.63;;;8.63;;
66437;SDS011;54537;47.972;11.662;2023-01-28T09:13:22;30.00;;;9.20;;
66437;SDS011;54537;47.972;11.662;2023-01-28T09:15:48;29.42;;;9.32;;
66437;SDS011;54537;47.972;11.662;2023-01-28T09:18:16;22.83;;;7.30;;
66437;SDS011;54537;47.972;11.662;2023-01-28T09:20:42;26.58;;;9.32;;
66437;SDS011;54537;47.972;11.662;2023-01-28T09:23:09;27.85;;;8.93;;
66437;SDS011;54537;47.972;11.662;2023-01-28T09:25:36;26.92;;;8.93;;
66437;SDS011;54537;47.972;11.662;2023-01-28T09:28:03;25.02;;;7.85;;
66437;SDS011;54537;47.972;11.662;2023-01-28T09:30:31;25.38;;;8.00;;
66437;SDS011;54537;47.972;11.662;2023-01-28T09:32:59;29.52;;;9.43;;
66437;SDS011;54537;47.972;11.662;2023-01-28T09:35:25;28.00;;;8.77;;
66437;SDS011;54537;47.972;11.662;2023-01-28T09:37:55;24.70;;;8.50;;
66437;SDS011;54537;47.972;11.662;2023-01-28T09:40:24;27.48;;;8.50;;
66437;SDS011;54537;47.972;11.662;2023-01-28T09:42:58;25.27;;;8.15;;
66437;SDS011;54537;47.972;11.662;2023-01-28T09:45:35;28.38;;;9.43;;
66437;SDS011;54537;47.972;11.662;2023-01-28T09:48:04;23.95;;;8.68;;
66437;SDS011;54537;47.972;11.662;2023-01-28T09:50:31;26.15;;;9.10;;
66437;SDS011;54537;47.972;11.662;2023-01-28T09:53:01;22.85;;;7.85;;
66437;SDS011;54537;47.972;11.662;2023-01-28T09:55:30;27.42;;;8.57;;
66437;SDS011;54537;47.972;11.662;2023-01-28T09:57:58;23.88;;;8.43;;
66437;SDS011;54537;47.972;11.662;2023-01-28T10:00:27;24.73;;;8.48;;
66437;SDS011;54537;47.972;11.662;2023-01-28T10:03:03;25.98;;;8.07;;
66437;SDS011;54537;47.972;11.662;2023-01-28T10:05:50;23.20;;;7.50;;
66437;SDS011;54537;47.972;11.662;2023-01-28T10:08:24;22.55;;;8.45;;
66437;SDS011;54537;47.972;11.662;2023-01-28T10:11:00;27.13;;;8.30;;
66437;SDS011;54537;47.972;11.662;2023-01-28T10:13:32;26.05;;;8.77;;
66437;SDS011;54537;47.972;11.662;2023-01-28T10:16:18;27.42;;;8.50;;
66437;SDS011;54537;47.972;11.662;2023-01-28T10:18:51;28.27;;;9.15;;
66437;SDS011;54537;47.972;11.662;2023-01-28T10:21:21;23.00;;;8.10;;
66437;SDS011;54537;47.972;11.662;2023-01-28T10:23:54;24.42;;;8.30;;
66437;SDS011;54537;47.972;11.662;2023-01-28T10:26:24;25.88;;;8.30;;
66437;SDS011;54537;47.972;11.662;2023-01-28T10:28:52;29.35;;;8.90;;
66437;SDS011;54537;47.972;11.662;2023-01-28T10:31:21;26.33;;;8.32;;
66437;SDS011;54537;47.972;11.662;2023-01-28T10:33:48;26.73;;;8.65;;
66437;SDS011;54537;47.972;11.662;2023-01-28T10:36:16;23.75;;;7.50;;
66437;SDS011;54537;47.972;11.662;2023-01-28T10:38:43;23.35;;;7.43;;
66437;SDS011;54537;47.972;11.662;2023-01-28T10:41:10;23.65;;;7.50;;
66437;SDS011;54537;47.972;11.662;2023-01-28T10:43:38;27.65;;;8.75;;
66437;SDS011;54537;47.972;11.662;2023-01-28T10:46:06;28.75;;;9.23;;
66437;SDS011;54537;47.972;11.662;2023-01-28T10:48:37;21.90;;;7.88;;
66437;SDS011;54537;47.972;11.662;2023-01-28T10:51:06;24.48;;;8.60;;
66437;SDS011;54537;47.972;11.662;2023-01-28T10:53:35;24.70;;;8.27;;
66437;SDS011;54537;47.972;11.662;2023-01-28T10:56:02;20.08;;;7.25;;
66437;SDS011;54537;47.972;11.662;2023-01-28T10:58:30;23.13;;;8.27;;
66437;SDS011;54537;47.972;11.662;2023-01-28T11:01:00;19.10;;;7.07;;
66437;SDS011;54537;47.972;11.662;2023-01-28T11:03:28;22.33;;;7.25;;
66437;SDS011;54537;47.972;11.662;2023-01-28T11:05:56;21.85;;;7.70;;
66437;SDS011;54537;47.972;11.662;2023-01-28T11:08:24;19.98;;;6.78;;
66437;SDS011;54537;47.972;11.662;2023-01-28T11:10:52;19.42;;;7.10;;
66437;SDS011;54537;47.972;11.662;2023-01-28T11:13:20;21.05;;;7.78;;
66437;SDS011;54537;47.972;11.662;2023-01-28T11:15:48;20.67;;;7.55;;
66437;SDS011;54537;47.972;11.662;2023-01-28T11:18:17;17.73;;;5.82;;
66437;SDS011;54537;47.972;11.662;2023-01-28T11:20:48;16.33;;;6.20;;
66437;SDS011;54537;47.972;11.662;2023-01-28T11:23:17;16.50;;;5.93;;
66437;SDS011;54537;47.972;11.662;2023-01-28T11:25:45;13.95;;;5.38;;
66437;SDS011;54537;47.972;11.662;2023-01-28T11:28:15;14.18;;;5.10;;
66437;SDS011;54537;47.972;11.662;2023-01-28T11:30:43;23.50;;;7.60;;
66437;SDS011;54537;47.972;11.662;2023-01-28T11:33:16;19.13;;;7.07;;
66437;SDS011;54537;47.972;11.662;2023-01-28T11:35:51;21.83;;;7.70;;
66437;SDS011;54537;47.972;11.662;2023-01-28T11:38:19;19.58;;;7.07;;
66437;SDS011;54537;47.972;11.662;2023-01-28T11:40:49;20.05;;;7.18;;
66437;SDS011;54537;47.972;11.662;2023-01-28T11:43:18;20.17;;;6.40;;
66437;SDS011;54537;47.972;11.662;2023-01-28T11:45:47;18.30;;;6.32;;
66437;SDS011;54537;47.972;11.662;2023-01-28T11:48:23;17.95;;;6.80;;
66437;SDS011;54537;47.972;11.662;2023-01-28T11:50:56;21.65;;;6.80;;
66437;SDS011;54537;47.972;11.662;2023-01-28T11:53:35;19.08;;;6.97;;
66437;SDS011;54537;47.972;11.662;2023-01-28T11:56:21;18.48;;;6.93;;
66437;SDS011;54537;47.972;11.662;2023-01-28T11:58:57;18.00;;;6.95;;
66437;SDS011;54537;47.972;11.662;2023-01-28T12:01:31;21.58;;;7.68;;
66437;SDS011;54537;47.972;11.662;2023-01-28T12:04:10;19.33;;;6.90;;
66437;SDS011;54537;47.972;11.662;2023-01-28T12:06:47;21.73;;;7.38;;
66437;SDS011;54537;47.972;11.662;2023-01-28T12:09:23;21.40;;;7.25;;
66437;SDS011;54537;47.972;11.662;2023-01-28T12:14:41;18.40;;;6.78;;
66437;SDS011;54537;47.972;11.662;2023-01-28T12:17:16;17.52;;;6.88;;
66437;SDS011;54537;47.972;11.662;2023-01-28T12:19:51;18.38;;;6.47;;
66437;SDS011;54537;47.972;11.662;2023-01-28T12:22:31;18.63;;;6.22;;
66437;SDS011;54537;47.972;11.662;2023-01-28T12:25:23;16.27;;;6.28;;
66437;SDS011;54537;47.972;11.662;2023-01-28T12:27:58;20.40;;;7.95;;
66437;SDS011;54537;47.972;11.662;2023-01-28T12:30:30;24.25;;;8.18;;
66437;SDS011;54537;47.972;11.662;2023-01-28T12:33:11;25.35;;;8.13;;
66437;SDS011;54537;47.972;11.662;2023-01-28T12:35:49;26.35;;;8.80;;
66437;SDS011;54537;47.972;11.662;2023-01-28T12:38:24;26.73;;;8.77;;
66437;SDS011;54537;47.972;11.662;2023-01-28T12:40:58;29.80;;;9.18;;
66437;SDS011;54537;47.972;11.662;2023-01-28T12:43:37;26.60;;;8.32;;
66437;SDS011;54537;47.972;11.662;2023-01-28T12:46:10;22.55;;;7.65;;
66437;SDS011;54537;47.972;11.662;2023-01-28T12:48:41;21.42;;;8.05;;
66437;SDS011;54537;47.972;11.662;2023-01-28T12:51:12;28.08;;;9.63;;
66437;SDS011;54537;47.972;11.662;2023-01-28T12:53:41;22.63;;;8.40;;
66437;SDS011;54537;47.972;11.662;2023-01-28T12:56:12;23.45;;;7.88;;
66437;SDS011;54537;47.972;11.662;2023-01-28T12:58:42;22.75;;;8.32;;
66437;SDS011;54537;47.972;11.662;2023-01-28T13:01:14;22.85;;;7.88;;
66437;SDS011;54537;47.972;11.662;2023-01-28T13:03:44;24.60;;;8.57;;
66437;SDS011;54537;47.972;11.662;2023-01-28T13:06:16;26.05;;;9.07;;
66437;SDS011;54537;47.972;11.662;2023-01-28T13:08:46;24.23;;;8.38;;
66437;SDS011;54537;47.972;11.662;2023-01-28T13:11:14;20.02;;;7.53;;
66437;SDS011;54537;47.972;11.662;2023-01-28T13:13:42;25.13;;;9.50;;
66437;SDS011;54537;47.972;11.662;2023-01-28T13:16:11;26.40;;;8.93;;
66437;SDS011;54537;47.972;11.662;2023-01-28T13:18:45;28.15;;;9.70;;
66437;SDS011;54537;47.972;11.662;2023-01-28T13:21:13;23.25;;;8.15;;
66437;SDS011;54537;47.972;11.662;2023-01-28T13:23:42;22.65;;;8.57;;
66437;SDS011;54537;47.972;11.662;2023-01-28T13:29:06;24.05;;;8.60;;
66437;SDS011;54537;47.972;11.662;2023-01-28T13:31:38;26.45;;;8.88;;
66437;SDS011;54537;47.972;11.662;2023-01-28T13:34:08;22.08;;;8.27;;
66437;SDS011;54537;47.972;11.662;2023-01-28T13:36:50;27.10;;;8.93;;
66437;SDS011;54537;47.972;11.662;2023-01-28T13:39:18;24.88;;;9.80;;
66437;SDS011;54537;47.972;11.662;2023-01-28T13:41:46;24.10;;;9.48;;
66437;SDS011;54537;47.972;11.662;2023-01-28T13:44:17;27.17;;;9.32;;
66437;SDS011;54537;47.972;11.662;2023-01-28T13:46:51;23.33;;;8.73;;
66437;SDS011;54537;47.972;11.662;2023-01-28T13:49:21;22.25;;;8.48;;
66437;SDS011;54537;47.972;11.662;2023-01-28T13:51:55;21.75;;;7.95;;
66437;SDS011;54537;47.972;11.662;2023-01-28T13:54:24;20.90;;;7.82;;
66437;SDS011;54537;47.972;11.662;2023-01-28T13:56:54;22.10;;;7.63;;
66437;SDS011;54537;47.972;11.662;2023-01-28T13:59:36;21.98;;;7.85;;
66437;SDS011;54537;47.972;11.662;2023-01-28T14:02:19;21.52;;;7.65;;
66437;SDS011;54537;47.972;11.662;2023-01-28T14:08:14;22.10;;;8.43;;
66437;SDS011;54537;47.972;11.662;2023-01-28T14:10:59;22.08;;;7.60;;
66437;SDS011;54537;47.972;11.662;2023-01-28T14:13:37;24.67;;;8.73;;
66437;SDS011;54537;47.972;11.662;2023-01-28T14:19:10;21.20;;;7.53;;
66437;SDS011;54537;47.972;11.662;2023-01-28T14:21:38;27.75;;;8.90;;
66437;SDS011;54537;47.972;11.662;2023-01-28T14:24:09;20.98;;;8.23;;
66437;SDS011;54537;47.972;11.662;2023-01-28T14:26:41;25.80;;;8.02;;
66437;SDS011;54537;47.972;11.662;2023-01-28T14:29:15;23.35;;;7.78;;
66437;SDS011;54537;47.972;11.662;2023-01-28T14:31:48;22.63;;;8.02;;
66437;SDS011;54537;47.972;11.662;2023-01-28T14:34:18;28.70;;;8.95;;
66437;SDS011;54537;47.972;11.662;2023-01-28T14:36:48;21.92;;;8.30;;
66437;SDS011;54537;47.972;11.662;2023-01-28T14:39:17;21.92;;;8.07;;
66437;SDS011;54537;47.972;11.662;2023-01-28T14:41:45;21.27;;;7.82;;
66437;SDS011;54537;47.972;11.662;2023-01-28T14:46:48;24.08;;;8.55;;
66437;SDS011;54537;47.972;11.662;2023-01-28T14:49:22;27.42;;;9.50;;
66437;SDS011;54537;47.972;11.662;2023-01-28T14:51:58;24.52;;;8.98;;
66437;SDS011;54537;47.972;11.662;2023-01-28T14:54:39;24.50;;;8.30;;